createdAt,value
2023-03-05T00:00:35.055Z,99830.72
2023-03-05T00:03:41.327Z,99828.19
2023-03-05T00:06:45.499Z,99830.28
2023-03-05T00:09:49.088Z,99830.28
2023-03-05T00:12:52.280Z,99827.78
2023-03-05T00:15:56.014Z,99837.34
2023-03-05T00:19:00.415Z,99836.69
2023-03-05T00:22:03.504Z,99848.09
2023-03-05T00:25:07.127Z,99839.56
2023-03-05T00:28:10.945Z,99842.97
2023-03-05T00:31:14.116Z,99847.06
2023-03-05T00:34:18.958Z,99846.34
2023-03-05T00:37:21.956Z,99848.94
2023-03-05T00:40:25.063Z,99840.34
2023-03-05T00:43:28.516Z,99840.53
2023-03-05T00:46:31.649Z,99841.13
2023-03-05T00:49:34.631Z,99834.75
2023-03-05T00:52:37.635Z,99840.22
2023-03-05T00:55:40.371Z,99833.91
2023-03-05T00:58:43.483Z,99831.56
2023-03-05T01:01:46.410Z,99828.19
2023-03-05T01:04:50.476Z,99827.91
2023-03-05T01:07:54.904Z,99831.56
2023-03-05T01:10:57.969Z,99832.34
2023-03-05T01:14:00.754Z,99831.50
2023-03-05T01:17:10.268Z,99823.41
2023-03-05T01:20:15.449Z,99822.16
2023-03-05T01:23:20.172Z,99823.56
2023-03-05T01:26:24.055Z,99820.03
2023-03-05T01:29:27.272Z,99826.00
2023-03-05T01:32:30.411Z,99827.34
2023-03-05T01:35:33.489Z,99833.41
2023-03-05T01:38:36.589Z,99828.88
2023-03-05T01:41:41.006Z,99828.09
2023-03-05T01:45:01.029Z,99825.22
2023-03-05T01:48:04.666Z,99828.44
2023-03-05T01:51:07.897Z,99821.06
2023-03-05T01:54:15.465Z,99829.53
2023-03-05T01:57:24.381Z,99821.72
2023-03-05T02:00:49.038Z,99827.06
2023-03-05T02:03:52.112Z,99825.31
2023-03-05T02:06:54.771Z,99826.44
2023-03-05T02:09:58.571Z,99825.69
2023-03-05T02:13:05.218Z,99829.41
2023-03-05T02:16:09.774Z,99831.78
2023-03-05T02:19:14.116Z,99826.28
2023-03-05T02:22:20.073Z,99828.84
2023-03-05T02:25:27.714Z,99824.19
2023-03-05T02:28:41.751Z,99828.94
2023-03-05T02:31:44.959Z,99827.94
2023-03-05T02:34:48.288Z,99833.16
2023-03-05T02:37:52.145Z,99832.25
2023-03-05T02:40:55.398Z,99829.00
2023-03-05T02:43:58.001Z,99833.44
2023-03-05T02:47:01.309Z,99828.59
2023-03-05T02:50:05.816Z,99822.53
2023-03-05T02:53:08.904Z,99825.53
2023-03-05T02:56:11.701Z,99820.00
2023-03-05T02:59:14.664Z,99812.50
2023-03-05T03:02:17.554Z,99818.66
2023-03-05T03:05:20.494Z,99820.41
2023-03-05T03:08:23.326Z,99824.53
2023-03-05T03:11:27.564Z,99824.44
2023-03-05T03:14:39.288Z,99820.00
2023-03-05T03:17:42.650Z,99815.56
2023-03-05T03:20:45.292Z,99815.31
2023-03-05T03:23:49.881Z,99809.03
2023-03-05T03:26:52.610Z,99802.50
2023-03-05T03:29:55.815Z,99811.63
2023-03-05T03:32:58.449Z,99796.38
2023-03-05T03:36:05.478Z,99799.19
2023-03-05T03:39:10.031Z,99801.03
2023-03-05T03:42:13.130Z,99804.56
2023-03-05T03:45:16.939Z,99798.13
2023-03-05T03:48:19.960Z,99793.91
2023-03-05T03:51:22.781Z,99801.72
2023-03-05T03:54:26.089Z,99800.03
2023-03-05T03:57:33.519Z,99796.50
2023-03-05T04:00:37.504Z,99798.56
2023-03-05T04:03:40.586Z,99793.75
2023-03-05T04:06:44.187Z,99797.34
2023-03-05T04:09:47.118Z,99803.94
2023-03-05T04:12:50.307Z,99798.22
2023-03-05T04:15:53.928Z,99795.37
2023-03-05T04:18:56.589Z,99790.47
2023-03-05T04:21:59.721Z,99787.34
2023-03-05T04:25:06.477Z,99796.91
2023-03-05T04:28:12.216Z,99786.63
2023-03-05T04:31:15.003Z,99793.22
2023-03-05T04:34:18.571Z,99791.69
2023-03-05T04:37:21.699Z,99798.44
2023-03-05T04:40:24.876Z,99788.78
2023-03-05T04:43:27.633Z,99792.91
2023-03-05T04:46:30.743Z,99783.34
2023-03-05T04:49:33.445Z,99790.22
2023-03-05T04:52:40.621Z,99785.72
2023-03-05T04:55:46.269Z,99788.63
2023-03-05T04:58:49.862Z,99798.28
2023-03-05T05:01:56.180Z,99790.75
2023-03-05T05:04:59.474Z,99782.94
2023-03-05T05:08:04.446Z,99786.41
2023-03-05T05:11:14.291Z,99791.25
2023-03-05T05:14:17.081Z,99788.91
2023-03-05T05:17:21.036Z,99794.63
2023-03-05T05:20:24.093Z,99789.63
2023-03-05T05:23:27.457Z,99796.50
2023-03-05T05:26:30.173Z,99798.13
2023-03-05T05:29:33.444Z,99799.97
2023-03-05T05:32:37.297Z,99803.56
2023-03-05T05:35:40.372Z,99796.13
2023-03-05T05:38:43.120Z,99809.75
2023-03-05T05:41:45.956Z,99803.19
2023-03-05T05:44:50.272Z,99805.94
2023-03-05T05:47:54.282Z,99804.94
2023-03-05T05:50:58.050Z,99804.31
2023-03-05T05:54:01.078Z,99818.19
2023-03-05T05:57:03.899Z,99818.56
2023-03-05T06:00:10.289Z,99811.69
2023-03-05T06:03:14.207Z,99830.69
2023-03-05T06:06:22.303Z,99832.22
2023-03-05T06:09:25.008Z,99830.72
2023-03-05T06:12:28.813Z,99826.06
2023-03-05T06:15:31.992Z,99833.66
2023-03-05T06:18:35.791Z,99838.59
2023-03-05T06:21:38.517Z,99837.97
2023-03-05T06:24:41.574Z,99848.69
2023-03-05T06:27:44.190Z,99837.75
2023-03-05T06:30:47.706Z,99842.41
2023-03-05T06:33:50.850Z,99837.78
2023-03-05T06:36:53.790Z,99833.09
2023-03-05T06:39:56.513Z,99838.84
2023-03-05T06:43:02.647Z,99831.34
2023-03-05T06:46:08.897Z,99842.91
2023-03-05T06:49:14.770Z,99840.75
2023-03-05T06:52:17.548Z,99839.16
2023-03-05T06:55:20.850Z,99838.72
2023-03-05T06:58:26.169Z,99842.91
2023-03-05T07:01:29.367Z,99840.63
2023-03-05T07:04:33.419Z,99846.53
2023-03-05T07:07:36.449Z,99849.72
2023-03-05T07:10:41.235Z,99852.44
2023-03-05T07:13:48.123Z,99835.31
2023-03-05T07:16:51.272Z,99852.50
2023-03-05T07:19:54.446Z,99833.72
2023-03-05T07:22:57.458Z,99828.88
2023-03-05T07:26:07.409Z,99838.38
2023-03-05T07:29:11.935Z,99840.66
2023-03-05T07:32:15.312Z,99840.41
2023-03-05T07:35:18.148Z,99843.00
2023-03-05T07:38:23.075Z,99834.47
2023-03-05T07:41:26.245Z,99834.72
2023-03-05T07:44:29.642Z,99834.16
2023-03-05T07:47:32.655Z,99839.13
2023-03-05T07:50:38.593Z,99838.31
2023-03-05T07:53:43.025Z,99834.50
2023-03-05T07:56:46.647Z,99832.66
2023-03-05T07:59:49.544Z,99826.88
2023-03-05T08:02:53.736Z,99829.56
2023-03-05T08:06:06.154Z,99819.91
2023-03-05T08:09:08.904Z,99817.03
2023-03-05T08:12:13.201Z,99820.19
2023-03-05T08:15:17.408Z,99820.09
2023-03-05T08:18:20.689Z,99817.66
2023-03-05T08:21:33.467Z,99819.75
2023-03-05T08:24:39.720Z,99816.69
2023-03-05T08:27:46.404Z,99814.59
2023-03-05T08:30:53.359Z,99818.34
2023-03-05T08:33:58.482Z,99814.84
2023-03-05T08:37:04.181Z,99829.31
2023-03-05T08:40:08.521Z,99822.91
2023-03-05T08:43:12.615Z,99822.91
2023-03-05T08:46:16.713Z,99823.19
2023-03-05T08:49:20.082Z,99817.94
2023-03-05T08:52:23.611Z,99819.97
2023-03-05T08:55:28.718Z,99816.09
2023-03-05T08:58:31.305Z,99821.25
2023-03-05T09:01:34.441Z,99814.22
2023-03-05T09:04:38.063Z,99822.81
2023-03-05T09:07:41.165Z,99812.22
2023-03-05T09:10:45.197Z,99818.75
2023-03-05T09:13:51.842Z,99821.41
2023-03-05T09:16:55.665Z,99816.31
2023-03-05T09:20:01.719Z,99809.09
2023-03-05T09:23:04.792Z,99808.28
2023-03-05T09:26:10.007Z,99796.13
2023-03-05T09:29:12.924Z,99808.50
2023-03-05T09:32:37.914Z,99805.00
2023-03-05T09:35:40.980Z,99803.16
2023-03-05T09:38:46.978Z,99802.66
2023-03-05T09:42:13.176Z,99810.44
2023-03-05T09:45:27.645Z,99805.47
2023-03-05T09:49:18.042Z,99797.41
2023-03-05T09:52:24.100Z,99792.03
2023-03-05T09:55:38.066Z,99795.37
2023-03-05T09:58:55.212Z,99790.97
2023-03-05T10:02:13.458Z,99785.78
2023-03-05T10:05:46.973Z,99780.78
2023-03-05T10:09:12.720Z,99789.34
2023-03-05T10:12:43.064Z,99780.34
2023-03-05T10:16:35.439Z,99774.31
2023-03-05T10:20:08.741Z,99768.28
2023-03-05T10:39:02.927Z,99752.03
2023-03-05T10:42:20.361Z,99751.06
2023-03-05T10:45:45.560Z,99752.03
2023-03-05T10:49:00.403Z,99745.94
2023-03-05T10:52:09.807Z,99738.28
2023-03-05T10:55:24.946Z,99734.13
2023-03-05T10:58:27.971Z,99734.75
2023-03-05T11:02:24.709Z,99727.31
2023-03-05T11:05:43.852Z,99732.34
2023-03-05T11:08:47.217Z,99730.34
2023-03-05T11:12:17.297Z,99723.44
2023-03-05T11:15:26.586Z,99732.56
2023-03-05T11:18:34.393Z,99720.47
2023-03-05T11:21:38.978Z,99718.44
2023-03-05T11:24:46.812Z,99714.94
2023-03-05T11:28:00.041Z,99718.56
2023-03-05T11:31:21.683Z,99715.53
2023-03-05T11:34:35.428Z,99710.50
2023-03-05T11:37:41.122Z,99701.59
2023-03-05T11:40:44.369Z,99694.69
2023-03-05T11:43:49.725Z,99693.53
2023-03-05T11:47:18.870Z,99703.19
2023-03-05T11:50:35.507Z,99694.47
2023-03-05T11:53:39.972Z,99695.19
2023-03-05T11:56:45.899Z,99685.72
2023-03-05T11:59:55.059Z,99683.91
2023-03-05T12:03:02.881Z,99668.75
2023-03-05T12:06:32.289Z,99668.19
2023-03-05T12:09:47.295Z,99668.78
2023-03-05T12:12:53.183Z,99665.34
2023-03-05T12:16:09.311Z,99659.16
2023-03-05T12:19:24.733Z,99653.03
2023-03-05T12:22:35.980Z,99652.00
2023-03-05T12:26:01.357Z,99641.44
2023-03-05T12:29:04.415Z,99628.91
2023-03-05T12:32:31.848Z,99623.50
2023-03-05T12:35:41.768Z,99626.44
2023-03-05T12:38:55.068Z,99629.16
2023-03-05T15:05:42.714Z,99546.00
2023-03-05T15:08:51.364Z,99544.94
2023-03-05T15:11:54.751Z,99552.16
2023-03-05T15:14:58.494Z,99551.28
2023-03-05T15:18:01.912Z,99546.78
2023-03-05T15:21:05.596Z,99553.47
2023-03-05T15:24:10.209Z,99551.81
2023-03-05T15:27:14.826Z,99552.44
2023-03-05T15:30:29.427Z,99556.81
2023-03-05T15:33:34.255Z,99549.38
2023-03-05T15:36:43.872Z,99553.69
2023-03-05T15:39:47.553Z,99552.63
2023-03-05T15:42:51.192Z,99546.94
2023-03-05T15:45:54.491Z,99547.22
2023-03-05T15:48:57.531Z,99557.22
2023-03-05T15:52:00.778Z,99565.09
2023-03-05T15:55:06.778Z,99555.72
2023-03-05T15:58:14.535Z,99565.16
2023-03-05T16:01:21.354Z,99550.47
2023-03-05T16:04:29.316Z,99555.41
2023-03-05T16:07:34.252Z,99558.03
2023-03-05T16:10:39.768Z,99561.31
2023-03-05T16:13:43.106Z,99556.22
2023-03-05T16:17:08.031Z,99570.72
2023-03-05T16:20:12.144Z,99570.47
2023-03-05T16:24:05.890Z,99569.75
2023-03-05T16:27:13.335Z,99580.03
2023-03-05T16:30:17.411Z,99583.38
2023-03-05T16:33:20.397Z,99582.09
2023-03-05T16:36:26.146Z,99588.31
2023-03-05T16:39:29.550Z,99574.03
2023-03-05T16:42:33.698Z,99583.00
2023-03-05T16:45:37.838Z,99590.06
2023-03-05T16:48:45.286Z,99584.41
2023-03-05T16:51:49.490Z,99575.94
2023-03-05T16:54:55.957Z,99580.25
2023-03-05T16:57:58.980Z,99574.63
2023-03-05T17:01:03.285Z,99577.91
2023-03-05T17:04:07.124Z,99563.94
2023-03-05T17:07:10.916Z,99582.84
2023-03-05T17:10:14.496Z,99574.25
2023-03-05T17:13:20.289Z,99582.09
2023-03-05T17:16:23.476Z,99583.31
2023-03-05T17:19:27.181Z,99595.97
2023-03-05T17:22:30.890Z,99590.28
2023-03-05T17:25:34.090Z,99592.53
2023-03-05T17:28:37.153Z,99593.62
2023-03-05T17:31:40.771Z,99581.22
2023-03-05T17:34:44.573Z,99597.16
2023-03-05T17:37:47.925Z,99597.59
2023-03-05T17:40:51.461Z,99603.06
2023-03-05T17:43:56.320Z,99607.44
2023-03-05T17:46:59.395Z,99616.72
2023-03-05T17:50:04.447Z,99602.03
2023-03-05T17:53:09.793Z,99611.34
2023-03-05T17:56:17.046Z,99613.72
2023-03-05T17:59:20.811Z,99607.44
2023-03-05T18:02:24.072Z,99609.16
2023-03-05T18:05:28.854Z,99601.19
2023-03-05T18:08:32.362Z,99604.69
2023-03-05T18:11:37.354Z,99609.66
2023-03-05T18:14:42.414Z,99600.84
2023-03-05T18:17:46.075Z,99595.28
2023-03-05T18:20:50.473Z,99594.25
2023-03-05T18:23:55.657Z,99591.09
2023-03-05T18:26:58.775Z,99588.16
2023-03-05T18:30:02.581Z,99595.00
2023-03-05T18:33:06.614Z,99596.37
2023-03-05T18:36:12.199Z,99594.53
2023-03-05T18:39:16.411Z,99593.59
2023-03-05T18:42:20.627Z,99597.37
2023-03-05T18:45:23.736Z,99596.87
2023-03-05T18:48:28.865Z,99596.87
2023-03-05T18:51:33.808Z,99590.59
2023-03-05T18:54:37.687Z,99592.25
2023-03-05T18:57:40.722Z,99585.94
2023-03-05T19:00:46.991Z,99578.69
2023-03-05T19:03:50.226Z,99580.41
2023-03-05T19:06:56.123Z,99584.69
2023-03-05T19:10:03.569Z,99587.31
2023-03-05T19:13:40.317Z,99586.81
2023-03-05T19:16:44.587Z,99588.19
2023-03-05T19:19:53.100Z,99591.00
2023-03-05T19:22:58.047Z,99586.16
2023-03-05T19:26:04.692Z,99592.03
2023-03-05T19:29:09.308Z,99588.94
2023-03-05T19:32:16.079Z,99599.44
2023-03-05T19:35:22.784Z,99596.66
2023-03-05T19:38:29.951Z,99591.03
2023-03-05T19:41:33.776Z,99597.16
2023-03-05T19:44:39.959Z,99595.25
2023-03-05T19:47:43.161Z,99591.88
2023-03-05T19:50:46.515Z,99597.19
2023-03-05T19:53:51.457Z,99592.47
2023-03-05T19:56:57.944Z,99592.81
2023-03-05T20:00:00.843Z,99595.06
2023-03-05T20:03:04.930Z,99597.91
2023-03-05T20:06:08.535Z,99594.56
2023-03-05T20:09:13.997Z,99585.62
2023-03-05T20:12:19.972Z,99587.16
2023-03-05T20:15:23.810Z,99585.31
2023-03-05T20:18:40.376Z,99585.50
2023-03-05T20:21:44.702Z,99581.19
2023-03-05T20:24:48.402Z,99587.16
2023-03-05T20:27:52.531Z,99579.75
2023-03-05T20:30:57.590Z,99581.75
2023-03-05T20:34:00.949Z,99582.84
2023-03-05T20:37:05.685Z,99578.84
2023-03-05T20:40:09.323Z,99580.50
2023-03-05T20:43:12.677Z,99585.97
2023-03-05T20:46:23.690Z,99574.81
2023-03-05T20:49:27.634Z,99577.56
2023-03-05T20:52:31.087Z,99571.50
2023-03-05T20:55:35.050Z,99583.63
2023-03-05T20:58:41.484Z,99583.28
2023-03-05T21:01:45.270Z,99568.22
2023-03-05T21:04:51.430Z,99572.25
2023-03-05T21:07:55.146Z,99569.50
2023-03-05T21:10:59.399Z,99564.94
2023-03-05T21:14:03.885Z,99569.97
2023-03-05T21:17:08.253Z,99571.16
2023-03-05T21:20:17.988Z,99567.97
2023-03-05T21:23:21.476Z,99564.63
2023-03-05T21:26:24.852Z,99563.91
2023-03-05T21:29:27.942Z,99564.09
2023-03-05T21:32:31.506Z,99562.94
2023-03-05T21:35:35.629Z,99559.56
2023-03-05T21:38:39.107Z,99566.28
2023-03-05T21:41:43.507Z,99560.41
2023-03-05T21:44:46.663Z,99563.09
2023-03-05T21:47:52.223Z,99565.19
2023-03-05T21:50:55.908Z,99566.63
2023-03-05T21:53:58.810Z,99572.88
2023-03-05T21:57:01.811Z,99572.88
2023-03-05T22:00:06.519Z,99567.91
2023-03-05T22:03:14.864Z,99563.91
2023-03-05T22:06:20.363Z,99559.28
2023-03-05T22:09:25.472Z,99561.41
2023-03-05T22:13:10.735Z,99560.84
2023-03-05T22:16:24.718Z,99552.31
2023-03-05T22:19:29.897Z,99547.81
2023-03-05T22:22:33.129Z,99549.00
2023-03-05T22:25:41.040Z,99548.81
2023-03-05T22:28:46.864Z,99540.19
2023-03-05T22:31:54.233Z,99537.72
2023-03-05T22:34:57.019Z,99542.84
2023-03-05T22:38:00.171Z,99539.34
2023-03-05T22:41:08.456Z,99543.28
2023-03-05T22:44:12.790Z,99534.97
2023-03-05T22:47:17.304Z,99531.94
2023-03-05T22:50:20.627Z,99539.25
2023-03-05T22:53:26.256Z,99529.81
2023-03-05T22:56:29.122Z,99528.97
2023-03-05T22:59:32.425Z,99525.69
2023-03-05T23:02:35.906Z,99527.22
2023-03-05T23:05:44.528Z,99525.56
2023-03-05T23:08:48.155Z,99528.50
2023-03-05T23:11:51.039Z,99525.69
2023-03-05T23:14:58.076Z,99524.19
2023-03-05T23:18:01.521Z,99521.00
2023-03-05T23:21:04.857Z,99519.66
2023-03-05T23:24:09.315Z,99524.94
2023-03-05T23:27:15.690Z,99519.31
2023-03-05T23:30:23.370Z,99512.50
2023-03-05T23:33:26.210Z,99517.97
2023-03-05T23:36:29.919Z,99517.88
2023-03-05T23:39:33.083Z,99514.00
2023-03-05T23:42:38.294Z,99518.13
2023-03-05T23:45:44.439Z,99519.03
2023-03-05T23:48:50.080Z,99515.19
2023-03-05T23:51:53.393Z,99508.28
2023-03-05T23:54:57.990Z,99510.03
2023-03-05T23:58:03.156Z,99505.97
